createdAt,value
2018-11-20T00:00:42.083Z,13.63
2018-11-20T00:03:30.650Z,15.13
2018-11-20T00:06:17.448Z,13.97
2018-11-20T00:09:06.699Z,14.53
2018-11-20T00:11:56.427Z,14.30
2018-11-20T00:14:52.003Z,15.13
2018-11-20T00:17:53.323Z,13.53
2018-11-20T00:20:45.228Z,15.47
2018-11-20T00:23:34.451Z,14.83
2018-11-20T00:26:28.343Z,17.23
2018-11-20T00:29:35.746Z,14.43
2018-11-20T00:32:24.959Z,15.47
2018-11-20T00:35:16.146Z,15.67
2018-11-20T00:37:58.132Z,13.93
2018-11-20T00:40:45.776Z,13.73
2018-11-20T00:43:50.125Z,14.70
2018-11-20T00:46:48.908Z,14.77
2018-11-20T00:49:34.771Z,14.53
2018-11-20T00:52:20.452Z,15.23
2018-11-20T00:55:09.674Z,15.37
2018-11-20T00:57:58.930Z,16.30
2018-11-20T01:00:56.719Z,14.33
2018-11-20T01:03:47.386Z,15.37
2018-11-20T01:06:44.287Z,14.23
2018-11-20T01:09:33.506Z,15.73
2018-11-20T01:12:27.394Z,15.50
2018-11-20T01:15:26.036Z,15.23
2018-11-20T01:18:14.217Z,14.50
2018-11-20T01:21:02.030Z,16.13
2018-11-20T01:23:58.550Z,17.13
2018-11-20T01:26:53.775Z,14.20
2018-11-20T01:29:42.359Z,15.03
2018-11-20T01:32:31.636Z,15.33
2018-11-20T01:35:20.069Z,13.30
2018-11-20T01:38:18.138Z,13.30
2018-11-20T01:41:16.855Z,12.90
2018-11-20T01:44:08.983Z,15.23
2018-11-20T01:46:56.926Z,14.20
2018-11-20T01:49:58.635Z,13.00
2018-11-20T01:52:47.169Z,15.17
2018-11-20T01:55:35.437Z,14.93
2018-11-20T01:58:14.805Z,13.40
2018-11-20T02:01:07.146Z,14.70
2018-11-20T02:03:57.973Z,14.90
2018-11-20T02:06:47.623Z,14.20
2018-11-20T02:09:35.609Z,14.67
2018-11-20T02:12:36.796Z,14.07
2018-11-20T02:15:36.163Z,12.90
2018-11-20T02:18:28.643Z,12.50
2018-11-20T02:21:21.488Z,13.77
2018-11-20T02:24:22.970Z,15.90
2018-11-20T02:27:12.726Z,13.10
2018-11-20T02:30:02.309Z,16.40
2018-11-20T02:32:50.419Z,17.20
2018-11-20T02:35:39.655Z,14.47
2018-11-20T02:38:37.938Z,14.37
2018-11-20T02:41:36.155Z,14.27
2018-11-20T02:44:20.007Z,14.23
2018-11-20T02:47:08.934Z,12.87
2018-11-20T02:49:58.366Z,14.07
2018-11-20T02:52:44.139Z,12.43
2018-11-20T02:55:27.586Z,13.93
2018-11-20T02:58:16.789Z,13.97
2018-11-20T03:01:17.987Z,14.10
2018-11-20T03:04:25.971Z,14.13
2018-11-20T03:07:03.204Z,15.67
2018-11-20T03:10:10.990Z,14.63
2018-11-20T03:13:09.602Z,16.23
2018-11-20T03:16:02.850Z,13.97
2018-11-20T03:18:51.789Z,14.67
2018-11-20T03:21:53.178Z,14.80
2018-11-20T03:24:41.153Z,13.17
2018-11-20T03:27:30.361Z,12.63
2018-11-20T03:30:51.140Z,14.53
2018-11-20T03:33:49.143Z,13.20
2018-11-20T03:36:38.125Z,13.83
2018-11-20T03:39:28.782Z,11.83
2018-11-20T03:42:17.785Z,13.20
2018-11-20T03:45:10.043Z,13.80
2018-11-20T03:47:58.166Z,14.93
2018-11-20T03:50:47.423Z,12.70
2018-11-20T03:53:39.851Z,12.77
2018-11-20T03:56:47.429Z,13.90
2018-11-20T03:59:48.581Z,14.13
2018-11-20T04:02:38.947Z,11.80
2018-11-20T04:05:33.951Z,9.73
2018-11-20T04:08:41.582Z,13.13
2018-11-20T04:11:42.674Z,13.40
2018-11-20T04:14:21.487Z,12.27
2018-11-20T04:17:11.157Z,13.87
2018-11-20T04:19:57.414Z,11.93
2018-11-20T04:22:50.203Z,14.13
2018-11-20T04:25:38.051Z,13.27
2018-11-20T04:28:25.819Z,13.77
2018-11-20T04:31:58.568Z,12.67
2018-11-20T04:34:46.524Z,13.03
2018-11-20T04:37:34.107Z,11.77
2018-11-20T04:40:17.669Z,13.80
2018-11-20T04:43:25.613Z,13.67
2018-11-20T04:46:14.786Z,11.73
2018-11-20T04:49:03.968Z,14.43
2018-11-20T04:51:51.488Z,12.90
2018-11-20T04:54:49.967Z,13.07
2018-11-20T04:57:37.912Z,12.07
2018-11-20T05:00:30.245Z,14.00
2018-11-20T05:03:11.921Z,9.97
2018-11-20T05:06:19.204Z,14.33
2018-11-20T05:09:24.132Z,11.83
2018-11-20T05:12:13.625Z,13.50
2018-11-20T05:15:21.335Z,13.57
2018-11-20T05:18:23.049Z,10.83
2018-11-20T05:21:11.062Z,11.17
2018-11-20T05:23:59.500Z,12.40
2018-11-20T05:27:07.351Z,11.80
2018-11-20T05:29:51.300Z,11.90
2018-11-20T05:32:40.518Z,13.40
2018-11-20T05:35:32.782Z,10.87
2018-11-20T05:38:21.900Z,12.03
2018-11-20T05:41:14.178Z,11.67
2018-11-20T05:44:05.886Z,10.37
2018-11-20T05:47:09.319Z,10.37
2018-11-20T05:49:57.249Z,11.93
2018-11-20T05:52:45.015Z,10.87
2018-11-20T05:55:29.959Z,11.17
2018-11-20T05:58:28.332Z,9.30
2018-11-20T06:01:20.618Z,10.50
2018-11-20T06:04:08.518Z,10.17
2018-11-20T06:06:57.632Z,9.73
2018-11-20T06:10:05.070Z,10.67
2018-11-20T06:13:00.299Z,10.60
2018-11-20T06:15:58.340Z,9.60
2018-11-20T06:18:59.615Z,10.73
2018-11-20T06:21:47.794Z,9.60
2018-11-20T06:24:35.858Z,11.50
2018-11-20T06:27:28.001Z,9.33
2018-11-20T06:30:16.473Z,9.83
2018-11-20T06:32:59.462Z,10.87
2018-11-20T06:35:47.980Z,9.97
2018-11-20T06:38:43.902Z,9.53
2018-11-20T06:41:45.326Z,9.63
2018-11-20T06:44:33.136Z,9.70
2018-11-20T06:47:20.962Z,10.17
2018-11-20T06:50:08.812Z,8.83
2018-11-20T06:52:56.748Z,10.47
2018-11-20T06:56:04.128Z,9.53
2018-11-20T06:59:02.311Z,8.50
2018-11-20T07:01:50.987Z,8.90
2018-11-20T07:04:41.002Z,10.03
2018-11-20T07:07:48.324Z,9.27
2018-11-20T07:10:37.618Z,8.53
2018-11-20T07:13:53.301Z,10.10
2018-11-20T07:16:46.096Z,9.33
2018-11-20T07:19:34.914Z,7.93
2018-11-20T07:22:23.000Z,8.73
2018-11-20T07:25:07.230Z,9.17
2018-11-20T07:28:11.672Z,8.30
2018-11-20T07:31:00.947Z,8.80
2018-11-20T07:33:38.934Z,8.77
2018-11-20T07:36:40.153Z,8.50
2018-11-20T07:39:41.528Z,10.10
2018-11-20T07:42:38.161Z,8.17
2018-11-20T07:45:27.333Z,8.93
2018-11-20T07:48:19.141Z,9.83
2018-11-20T07:51:06.701Z,9.23
2018-11-20T07:54:03.854Z,8.90
2018-11-20T07:56:53.206Z,8.80
2018-11-20T07:59:49.347Z,7.83
2018-11-20T08:02:32.036Z,8.27
2018-11-20T08:05:33.374Z,7.87
2018-11-20T08:08:25.995Z,8.10
2018-11-20T08:11:05.164Z,8.37
2018-11-20T08:14:03.068Z,8.07
2018-11-20T08:16:46.681Z,6.83
2018-11-20T08:19:38.681Z,7.40
2018-11-20T08:22:19.697Z,7.07
2018-11-20T08:25:19.205Z,6.80
2018-11-20T08:28:08.356Z,6.30
2018-11-20T08:31:10.673Z,6.90
2018-11-20T08:34:10.762Z,6.87
2018-11-20T08:36:52.221Z,7.53
2018-11-20T08:39:40.576Z,6.33
2018-11-20T08:42:28.552Z,5.43
2018-11-20T08:45:21.118Z,7.20
2018-11-20T08:48:19.268Z,6.07
2018-11-20T08:51:07.330Z,6.60
2018-11-20T08:54:14.755Z,6.57
2018-11-20T08:57:04.942Z,5.17
2018-11-20T09:00:05.886Z,6.73
2018-11-20T09:02:46.137Z,5.83
2018-11-20T09:05:38.756Z,6.23
2018-11-20T09:08:43.161Z,6.80
2018-11-20T09:11:38.546Z,5.23
2018-11-20T09:14:42.785Z,6.47
2018-11-20T09:17:50.197Z,5.87
2018-11-20T09:20:56.502Z,5.80
2018-11-20T09:23:44.574Z,6.10
2018-11-20T09:26:45.837Z,5.53
2018-11-20T09:29:33.837Z,6.83
2018-11-20T09:32:16.106Z,5.93
2018-11-20T09:35:20.432Z,5.90
2018-11-20T09:38:02.557Z,5.27
2018-11-20T09:41:14.097Z,6.13
2018-11-20T09:44:24.247Z,6.80
2018-11-20T09:47:28.502Z,6.77
2018-11-20T09:50:16.446Z,5.17
2018-11-20T09:53:20.761Z,5.50
2018-11-20T09:56:08.531Z,6.17
2018-11-20T09:58:54.670Z,5.77
2018-11-20T10:01:49.658Z,6.57
2018-11-20T10:04:48.549Z,5.83
2018-11-20T10:07:46.893Z,5.47
2018-11-20T10:10:42.131Z,5.70
2018-11-20T10:13:30.583Z,5.70
2018-11-20T10:16:19.617Z,5.27
2018-11-20T10:19:02.294Z,5.13
2018-11-20T10:22:06.822Z,5.63
2018-11-20T10:24:58.435Z,4.77
2018-11-20T10:27:47.462Z,5.97
2018-11-20T10:30:46.141Z,5.63
2018-11-20T10:33:28.140Z,5.03
2018-11-20T10:36:20.246Z,5.43
2018-11-20T10:39:08.207Z,5.60
2018-11-20T10:41:53.705Z,5.93
2018-11-20T10:44:39.548Z,4.90
2018-11-20T10:47:27.793Z,5.70
2018-11-20T10:50:29.120Z,5.27
2018-11-20T10:53:31.290Z,5.67
2018-11-20T10:56:26.148Z,5.60
2018-11-20T10:59:30.486Z,4.90
2018-11-20T11:02:18.757Z,5.00
2018-11-20T11:05:06.844Z,5.40
2018-11-20T11:07:55.313Z,5.17
2018-11-20T11:10:44.770Z,6.03
2018-11-20T11:13:46.807Z,5.90
2018-11-20T11:16:36.107Z,5.67
2018-11-20T11:19:38.404Z,5.23
2018-11-20T11:22:26.437Z,4.90
2018-11-20T11:25:17.546Z,5.73
2018-11-20T11:28:23.491Z,5.20
2018-11-20T11:31:11.059Z,6.30
2018-11-20T11:34:09.850Z,5.20
2018-11-20T11:36:59.386Z,5.90
2018-11-20T11:39:47.576Z,5.40
2018-11-20T11:42:49.311Z,5.53
2018-11-20T11:45:44.797Z,6.07
2018-11-20T11:48:43.075Z,5.30
2018-11-20T11:51:33.191Z,5.40
2018-11-20T11:54:24.295Z,5.80
2018-11-20T11:57:13.519Z,5.33
2018-11-20T12:00:02.185Z,4.97
2018-11-20T12:05:45.160Z,5.87
2018-11-20T12:08:33.061Z,6.10
2018-11-20T12:11:37.323Z,5.33
2018-11-20T12:14:27.226Z,5.97
2018-11-20T12:17:15.599Z,5.10
2018-11-20T12:20:03.703Z,5.27
2018-11-20T12:23:08.089Z,5.13
2018-11-20T12:25:49.618Z,5.93
2018-11-20T12:28:37.678Z,5.27
2018-11-20T12:31:32.598Z,5.13
2018-11-20T12:34:28.804Z,5.03
2018-11-20T12:37:15.105Z,5.03
2018-11-20T12:40:02.986Z,5.03
2018-11-20T12:42:52.094Z,4.60
2018-11-20T12:45:55.853Z,5.50
2018-11-20T12:48:42.872Z,5.73
2018-11-20T12:51:48.717Z,4.93
2018-11-20T12:54:36.488Z,5.73
2018-11-20T12:57:34.111Z,4.57
2018-11-20T13:00:20.699Z,5.70
2018-11-20T13:03:09.858Z,5.07
2018-11-20T13:05:50.992Z,4.97
2018-11-20T13:08:46.121Z,5.33
2018-11-20T13:11:53.930Z,4.80
2018-11-20T13:14:52.336Z,5.30
2018-11-20T13:17:35.881Z,5.00
2018-11-20T13:20:22.125Z,4.93
2018-11-20T13:23:31.475Z,5.73
2018-11-20T13:26:24.666Z,5.23
2018-11-20T13:29:29.356Z,5.00
2018-11-20T13:32:17.219Z,5.07
2018-11-20T13:35:25.760Z,4.90
2018-11-20T13:38:33.351Z,5.03
2018-11-20T13:41:48.196Z,5.27
2018-11-20T13:44:57.387Z,5.80
2018-11-20T13:47:53.026Z,5.43
2018-11-20T13:50:45.224Z,4.93
2018-11-20T13:53:40.915Z,5.43
2018-11-20T13:56:28.822Z,5.40
2018-11-20T13:59:16.135Z,5.57
2018-11-20T14:02:05.324Z,5.30
2018-11-20T14:05:01.078Z,5.70
2018-11-20T14:07:49.245Z,5.17
2018-11-20T14:10:37.153Z,6.43
2018-11-20T14:13:26.445Z,6.07
2018-11-20T14:16:14.441Z,6.23
2018-11-20T14:19:18.653Z,6.00
2018-11-20T14:22:07.145Z,5.03
2018-11-20T14:24:59.101Z,5.97
2018-11-20T14:27:49.096Z,5.87
2018-11-20T14:30:41.332Z,6.07
2018-11-20T14:33:31.582Z,5.10
2018-11-20T14:36:19.911Z,6.87
2018-11-20T14:39:18.531Z,7.27
2018-11-20T14:42:06.990Z,6.70
2018-11-20T14:44:55.893Z,6.03
2018-11-20T14:47:43.873Z,6.40
2018-11-20T14:50:30.649Z,7.13
2018-11-20T14:53:37.676Z,8.50
2018-11-20T14:56:20.698Z,6.63
2018-11-20T14:59:19.163Z,5.90
2018-11-20T15:02:07.266Z,6.00
2018-11-20T15:05:02.464Z,6.47
2018-11-20T15:07:48.452Z,6.23
2018-11-20T15:10:42.828Z,6.50
2018-11-20T15:13:32.035Z,6.40
2018-11-20T15:16:20.178Z,5.83
2018-11-20T15:19:11.931Z,7.10
2018-11-20T15:22:13.066Z,6.63
2018-11-20T15:25:05.846Z,6.90
2018-11-20T15:27:58.822Z,5.80
2018-11-20T15:31:03.812Z,6.27
2018-11-20T15:33:46.645Z,5.67
2018-11-20T15:36:45.772Z,5.90
2018-11-20T15:39:34.947Z,6.57
2018-11-20T15:42:23.058Z,6.07
2018-11-20T15:45:11.005Z,6.70
2018-11-20T15:48:00.244Z,5.97
2018-11-20T15:50:48.773Z,6.00
2018-11-20T15:53:43.781Z,6.40
2018-11-20T15:56:32.978Z,6.03
2018-11-20T15:59:25.618Z,6.13
2018-11-20T16:02:13.352Z,6.17
2018-11-20T16:05:01.196Z,5.97
2018-11-20T16:07:46.894Z,6.20
2018-11-20T16:10:54.446Z,6.27
2018-11-20T16:13:42.665Z,6.47
2018-11-20T16:16:31.986Z,5.93
2018-11-20T16:19:23.189Z,7.00
2018-11-20T16:22:15.377Z,6.80
2018-11-20T16:25:03.948Z,6.13
2018-11-20T16:27:54.425Z,6.93
2018-11-20T16:30:55.319Z,6.77
2018-11-20T16:33:43.482Z,6.70
2018-11-20T16:36:31.015Z,6.73
2018-11-20T16:39:29.996Z,7.47
2018-11-20T16:42:18.682Z,7.40
2018-11-20T16:45:04.286Z,8.07
2018-11-20T16:47:52.122Z,6.67
2018-11-20T16:50:40.371Z,6.97
2018-11-20T16:53:41.859Z,7.53
2018-11-20T16:56:34.264Z,7.50
2018-11-20T16:59:18.934Z,7.40
2018-11-20T17:02:06.719Z,6.93
2018-11-20T17:04:54.409Z,8.00
2018-11-20T17:07:54.195Z,8.50
2018-11-20T17:10:38.880Z,8.27
2018-11-20T17:13:34.292Z,8.43
2018-11-20T17:16:35.855Z,10.07
2018-11-20T17:19:27.762Z,11.03
2018-11-20T17:22:19.630Z,11.50
2018-11-20T17:25:07.516Z,9.67
2018-11-20T17:27:56.786Z,9.13
2018-11-20T17:30:44.786Z,9.80
2018-11-20T17:33:39.726Z,9.57
2018-11-20T17:36:27.707Z,8.93
2018-11-20T17:39:31.680Z,9.07
2018-11-20T17:42:19.693Z,9.33
2018-11-20T17:45:08.900Z,10.20
2018-11-20T17:47:58.071Z,9.80
2018-11-20T17:50:59.424Z,9.30
2018-11-20T17:53:47.892Z,9.03
2018-11-20T17:56:35.335Z,9.17
2018-11-20T17:59:36.787Z,10.17
2018-11-20T18:02:30.446Z,10.20
2018-11-20T18:05:25.507Z,10.07
2018-11-20T18:08:13.428Z,9.40
2018-11-20T18:11:08.422Z,9.63
2018-11-20T18:13:56.363Z,8.47
2018-11-20T18:16:44.563Z,8.77
2018-11-20T18:19:23.079Z,9.83
2018-11-20T18:22:10.879Z,9.60
2018-11-20T18:25:12.136Z,9.77
2018-11-20T18:28:01.311Z,9.47
2018-11-20T18:30:49.163Z,9.40
2018-11-20T18:33:37.375Z,9.60
2018-11-20T18:36:26.495Z,10.03
2018-11-20T18:39:22.003Z,9.23
2018-11-20T18:42:26.441Z,9.17
2018-11-20T18:45:14.487Z,8.47
2018-11-20T18:48:18.827Z,9.43
2018-11-20T18:51:07.477Z,9.47
2018-11-20T18:54:02.415Z,9.13
2018-11-20T18:56:50.538Z,8.97
2018-11-20T18:59:38.243Z,9.63
2018-11-20T19:02:25.936Z,14.37
2018-11-20T19:05:14.006Z,10.37
2018-11-20T19:07:57.145Z,10.77
2018-11-20T19:10:52.296Z,11.07
2018-11-20T19:13:45.330Z,9.67
2018-11-20T19:16:46.329Z,10.33
2018-11-20T19:19:38.834Z,10.13
2018-11-20T19:22:43.028Z,9.10
2018-11-20T19:25:30.437Z,8.80
2018-11-20T19:28:23.729Z,10.83
2018-11-20T19:31:12.917Z,9.77
2018-11-20T19:34:00.518Z,9.30
2018-11-20T19:36:58.490Z,9.40
2018-11-20T19:41:02.197Z,10.53
2018-11-20T19:43:56.379Z,9.80
2018-11-20T19:46:49.143Z,9.97
2018-11-20T19:49:37.730Z,9.57
2018-11-20T19:52:31.956Z,10.37
2018-11-20T19:55:19.114Z,10.10
2018-11-20T19:58:06.447Z,9.20
2018-11-20T20:00:58.151Z,9.37
2018-11-20T20:03:53.062Z,8.57
2018-11-20T20:06:46.724Z,9.40
2018-11-20T20:09:42.909Z,10.37
2018-11-20T20:12:26.958Z,9.40
2018-11-20T20:15:18.987Z,9.43
2018-11-20T20:18:09.080Z,8.90
2018-11-20T20:20:55.887Z,8.87
2018-11-20T20:23:43.411Z,9.17
2018-11-20T20:26:42.757Z,9.53
2018-11-20T20:29:29.828Z,8.87
2018-11-20T20:32:21.549Z,10.00
2018-11-20T20:35:17.831Z,8.47
2018-11-20T20:38:04.995Z,8.60
2018-11-20T20:40:59.220Z,9.47
2018-11-20T20:43:47.363Z,8.13
2018-11-20T20:46:35.213Z,8.57
2018-11-20T20:49:12.416Z,8.20
2018-11-20T20:51:59.878Z,8.33
2018-11-20T20:54:48.224Z,8.07
2018-11-20T20:57:37.211Z,9.53
2018-11-20T21:00:28.736Z,9.13
2018-11-20T21:03:22.033Z,8.80
2018-11-20T21:06:12.279Z,9.33
2018-11-20T21:09:02.758Z,9.13
2018-11-20T21:11:56.613Z,7.97
2018-11-20T21:15:03.012Z,9.07
2018-11-20T21:17:53.406Z,9.10
2018-11-20T21:21:01.476Z,9.90
2018-11-20T21:23:59.672Z,9.70
2018-11-20T21:26:48.124Z,7.97
2018-11-20T21:29:46.516Z,8.63
2018-11-20T21:32:44.398Z,7.47
2018-11-20T21:35:34.848Z,8.20
2018-11-20T21:38:31.063Z,7.00
2018-11-20T21:41:32.818Z,7.70
2018-11-20T21:44:22.022Z,6.97
2018-11-20T21:47:12.123Z,7.00
2018-11-20T21:50:02.947Z,7.93
2018-11-20T21:52:51.893Z,8.10
2018-11-20T21:55:40.258Z,7.77
2018-11-20T21:58:24.654Z,8.30
2018-11-20T22:01:26.266Z,8.10
2018-11-20T22:04:19.181Z,7.30
2018-11-20T22:07:07.683Z,7.63
2018-11-20T22:10:07.869Z,6.90
2018-11-20T22:12:58.912Z,6.27
2018-11-20T22:15:46.548Z,7.70
2018-11-20T22:18:36.007Z,7.43
2018-11-20T22:21:23.238Z,8.80
2018-11-20T22:24:11.072Z,7.43
2018-11-20T22:26:59.292Z,7.57
2018-11-20T22:29:56.348Z,8.13
2018-11-20T22:32:57.317Z,6.53
2018-11-20T22:35:46.560Z,7.80
2018-11-20T22:38:40.973Z,7.27
2018-11-20T22:41:29.246Z,7.13
2018-11-20T22:44:32.567Z,8.00
2018-11-20T22:47:20.041Z,6.40
2018-11-20T22:50:07.195Z,7.70
2018-11-20T22:52:54.274Z,6.80
2018-11-20T22:55:45.274Z,7.07
2018-11-20T22:58:40.110Z,7.93
2018-11-20T23:01:20.490Z,8.07
2018-11-20T23:04:07.410Z,7.53
2018-11-20T23:06:55.789Z,7.17
2018-11-20T23:09:25.425Z,8.27
2018-11-20T23:11:55.460Z,7.93
2018-11-20T23:14:24.628Z,8.23
2018-11-20T23:16:53.877Z,9.00
2018-11-20T23:19:23.122Z,8.03
2018-11-20T23:21:52.264Z,8.60
2018-11-20T23:24:21.425Z,8.30
2018-11-20T23:26:50.708Z,7.80
2018-11-20T23:29:19.848Z,7.97
2018-11-20T23:31:49.393Z,8.37
2018-11-20T23:34:18.545Z,8.53
2018-11-20T23:36:47.716Z,8.67
2018-11-20T23:39:17.227Z,8.70
2018-11-20T23:41:46.466Z,8.37
2018-11-20T23:44:15.640Z,8.60
2018-11-20T23:46:45.273Z,9.63
2018-11-20T23:49:15.383Z,9.27
2018-11-20T23:51:43.953Z,8.80
2018-11-20T23:54:13.081Z,8.80
2018-11-20T23:56:42.556Z,9.73
2018-11-20T23:59:12.047Z,9.17
